Araguainha, Brazil
Current Conditions -  °F | °C
As of 8:00 AM on Monday 22 Dec 2014 (Local Time) from SBBW Reporting Station
Broken Clouds Broken Clouds  
Wind Chill: 75°   Ceiling: 9000
Heat Index: 75°   Visibility: 6mi
Dew Point: 73°   Wind: 9mph
Humidity: 94%   Direction: 50°NE
Pressure: 29.97"   Gusts: NA
Location:  16.86°S, 53.03°W
Report Text: SBBW 221100Z 05008KT 9999 FEW012 BKN090 24/23 Q1015
Loading
Personal Weather Stations






























Interactive Weather Map New forecast layout! Learn more

10-Day Weather Forecast

Advertisements
Track Severe Weather on mobile